createdAt,value
2023-02-11T00:00:28.169Z,43.33
2023-02-11T00:01:34.048Z,42.17
2023-02-11T00:02:37.272Z,33.53
2023-02-11T00:03:40.380Z,36.78
2023-02-11T00:04:43.515Z,35.97
2023-02-11T00:05:46.681Z,36.83
2023-02-11T00:06:49.682Z,39.20
2023-02-11T00:07:52.820Z,37.28
2023-02-11T00:08:56.634Z,41.13
2023-02-11T00:10:00.262Z,41.03
2023-02-11T00:11:04.069Z,37.75
2023-02-11T00:12:07.096Z,36.55
2023-02-11T00:13:10.055Z,37.67
2023-02-11T00:14:13.140Z,33.20
2023-02-11T00:15:16.148Z,36.55
2023-02-11T00:16:21.866Z,39.25
2023-02-11T00:17:26.133Z,39.00
2023-02-11T00:18:29.184Z,39.60
2023-02-11T00:19:32.366Z,41.72
2023-02-11T00:20:35.349Z,38.70
2023-02-11T00:21:38.460Z,41.50
2023-02-11T00:22:41.589Z,36.78
2023-02-11T00:23:46.226Z,40.10
2023-02-11T00:24:49.345Z,38.05
2023-02-11T00:25:52.839Z,41.47
2023-02-11T00:26:56.389Z,42.33
2023-02-11T00:28:00.020Z,38.40
2023-02-11T00:29:05.030Z,39.55
2023-02-11T00:30:08.981Z,39.13
2023-02-11T00:31:13.228Z,37.30
2023-02-11T00:32:16.381Z,38.25
2023-02-11T00:33:19.500Z,36.20
2023-02-11T00:34:22.828Z,38.25
2023-02-11T00:35:25.923Z,42.65
2023-02-11T00:36:29.906Z,40.70
2023-02-11T00:37:36.696Z,36.15
2023-02-11T00:38:39.897Z,39.35
2023-02-11T00:39:43.033Z,36.85
2023-02-11T00:40:46.197Z,42.22
2023-02-11T00:41:49.323Z,44.55
2023-02-11T00:42:52.520Z,42.65
2023-02-11T00:43:55.487Z,36.05
2023-02-11T00:44:58.673Z,39.75
2023-02-11T00:46:01.686Z,40.58
2023-02-11T00:47:04.815Z,40.92
2023-02-11T00:48:07.822Z,42.15
2023-02-11T00:49:11.150Z,38.45
2023-02-11T00:50:14.230Z,36.50
2023-02-11T00:51:17.775Z,39.25
2023-02-11T00:52:20.877Z,42.15
2023-02-11T00:53:24.168Z,43.33
2023-02-11T00:54:29.873Z,38.75
2023-02-11T00:55:33.188Z,38.67
2023-02-11T00:56:36.350Z,44.63
2023-02-11T00:57:39.384Z,41.67
2023-02-11T00:58:42.589Z,38.75
2023-02-11T00:59:45.667Z,40.05
2023-02-11T01:00:49.570Z,41.47
2023-02-11T01:01:52.851Z,46.60
2023-02-11T01:02:56.359Z,37.95
2023-02-11T01:03:59.550Z,39.70
2023-02-11T01:05:02.761Z,33.15
2023-02-11T01:06:08.211Z,38.35
2023-02-11T01:07:11.579Z,37.72
2023-02-11T01:08:14.667Z,41.20
2023-02-11T01:09:18.159Z,40.55
2023-02-11T01:10:21.285Z,39.17
2023-02-11T01:11:24.463Z,39.45
2023-02-11T01:12:27.498Z,37.53
2023-02-11T01:13:33.058Z,41.30
2023-02-11T01:14:36.122Z,37.08
2023-02-11T01:15:39.422Z,38.15
2023-02-11T01:16:42.663Z,41.08
2023-02-11T01:17:45.940Z,39.55
2023-02-11T01:18:49.676Z,34.83
2023-02-11T01:19:52.870Z,36.35
2023-02-11T01:20:57.115Z,38.08
2023-02-11T01:22:00.257Z,42.17
2023-02-11T01:23:03.346Z,39.42
2023-02-11T01:24:06.918Z,39.92
2023-02-11T01:25:10.665Z,35.88
2023-02-11T01:26:14.161Z,36.20
2023-02-11T01:27:17.494Z,36.92
2023-02-11T01:28:26.470Z,38.58
2023-02-11T01:29:29.422Z,38.75
2023-02-11T01:30:32.709Z,38.67
2023-02-11T01:31:36.074Z,43.10
2023-02-11T01:32:39.265Z,36.13
2023-02-11T01:33:42.462Z,37.97
2023-02-11T01:34:45.456Z,36.80
2023-02-11T01:35:49.018Z,36.17
2023-02-11T01:36:56.862Z,39.25
2023-02-11T01:37:59.885Z,36.63
2023-02-11T01:39:02.975Z,35.00
2023-02-11T01:40:11.621Z,38.92
2023-02-11T01:41:15.462Z,38.17
2023-02-11T01:42:22.650Z,34.72
2023-02-11T01:43:28.428Z,37.17
2023-02-11T01:44:38.264Z,34.60
2023-02-11T01:45:50.044Z,39.88
2023-02-11T01:46:54.170Z,35.97
2023-02-11T01:47:57.623Z,38.15
2023-02-11T01:49:09.916Z,40.08
2023-02-11T01:50:13.661Z,33.30
2023-02-11T01:51:22.476Z,40.67
2023-02-11T01:52:39.405Z,34.95
2023-02-11T01:54:02.406Z,33.75
2023-02-11T01:55:32.856Z,33.25
2023-02-11T01:56:58.823Z,37.10
2023-02-11T01:58:05.554Z,38.45
2023-02-11T01:59:33.624Z,30.65
2023-02-11T02:00:39.306Z,30.23
2023-02-11T02:01:48.860Z,37.58
2023-02-11T02:03:13.474Z,32.70
2023-02-11T02:04:19.391Z,30.73
2023-02-11T02:06:07.424Z,40.35
2023-02-11T02:07:17.514Z,31.23
2023-02-11T02:08:50.621Z,35.00
2023-02-11T02:10:06.285Z,32.13
2023-02-11T02:11:10.023Z,32.33
2023-02-11T02:12:12.988Z,36.05
2023-02-11T02:13:16.519Z,38.38
2023-02-11T02:14:19.925Z,35.97
2023-02-11T02:15:26.734Z,32.80
2023-02-11T02:16:36.776Z,36.30
2023-02-11T02:17:57.495Z,32.58
2023-02-11T02:19:07.014Z,33.97
2023-02-11T02:20:10.144Z,33.10
2023-02-11T02:21:34.967Z,31.42
2023-02-11T02:23:03.844Z,34.35
2023-02-11T02:24:45.053Z,32.60
2023-02-11T02:26:09.451Z,32.95
2023-02-11T02:27:18.704Z,33.75
2023-02-11T02:28:59.630Z,30.42
2023-02-11T02:30:46.343Z,31.52
2023-02-11T02:32:37.337Z,33.00
2023-02-11T02:33:43.365Z,30.83
2023-02-11T02:35:10.544Z,35.35
2023-02-11T02:36:35.054Z,32.78
2023-02-11T02:37:43.865Z,33.13
2023-02-11T02:38:54.978Z,34.28
2023-02-11T02:40:03.660Z,38.05
2023-02-11T02:41:17.145Z,33.72
2023-02-11T02:42:21.363Z,33.67
2023-02-11T02:43:27.871Z,35.05
2023-02-11T02:44:31.644Z,29.95
2023-02-11T02:45:34.778Z,32.47
2023-02-11T02:46:38.018Z,32.90
2023-02-11T02:47:41.383Z,31.45
2023-02-11T02:48:45.786Z,37.97
2023-02-11T02:49:48.824Z,29.92
2023-02-11T02:51:00.698Z,34.45
2023-02-11T02:52:47.881Z,34.85
2023-02-11T02:54:09.581Z,34.10
2023-02-11T02:55:35.378Z,36.65
2023-02-11T02:56:52.141Z,33.03
2023-02-11T02:58:31.084Z,35.20
2023-02-11T02:59:58.874Z,31.70
2023-02-11T03:01:14.113Z,29.55
2023-02-11T03:02:47.404Z,33.85
2023-02-11T03:04:05.931Z,31.20
2023-02-11T03:05:35.660Z,33.10
2023-02-11T03:06:58.781Z,31.98
2023-02-11T03:08:16.629Z,28.70
2023-02-11T03:09:40.353Z,30.73
2023-02-11T03:10:50.957Z,34.13
2023-02-11T03:11:54.448Z,34.35
2023-02-11T03:12:58.571Z,33.83
2023-02-11T03:14:05.093Z,33.35
2023-02-11T03:15:09.168Z,30.75
2023-02-11T03:16:18.694Z,34.20
2023-02-11T03:17:24.040Z,34.22
2023-02-11T03:18:30.125Z,30.65
2023-02-11T03:19:44.190Z,29.08
2023-02-11T03:20:52.671Z,30.33
2023-02-11T03:21:57.673Z,26.17
2023-02-11T03:23:13.608Z,31.30
2023-02-11T03:24:24.754Z,30.33
2023-02-11T03:25:34.120Z,31.20
2023-02-11T03:26:49.132Z,30.05
2023-02-11T03:28:18.602Z,25.85
2023-02-11T03:29:44.449Z,26.30
2023-02-11T03:31:05.985Z,28.20
2023-02-11T03:32:25.261Z,30.10
2023-02-11T03:33:33.801Z,30.10
2023-02-11T03:34:45.883Z,29.98
2023-02-11T03:35:57.059Z,27.77
2023-02-11T03:37:14.912Z,30.20
2023-02-11T03:38:26.540Z,29.25
2023-02-11T03:39:36.873Z,32.85
2023-02-11T03:40:43.941Z,31.02
2023-02-11T03:41:49.305Z,31.65
2023-02-11T03:42:58.978Z,30.80
2023-02-11T03:44:03.378Z,30.75
2023-02-11T03:45:11.196Z,28.38
2023-02-11T03:46:18.071Z,32.58
2023-02-11T03:47:26.387Z,33.95
2023-02-11T03:48:37.347Z,34.67
2023-02-11T03:49:43.843Z,30.55
2023-02-11T03:50:48.713Z,28.00
2023-02-11T03:51:55.249Z,32.85
2023-02-11T03:53:02.443Z,30.52
2023-02-11T03:54:09.902Z,37.40
2023-02-11T03:55:17.906Z,32.85
2023-02-11T03:56:24.069Z,28.45
2023-02-11T03:57:27.310Z,28.35
2023-02-11T03:58:31.151Z,28.20
2023-02-11T03:59:54.208Z,31.55
2023-02-11T04:00:57.548Z,34.58
2023-02-11T04:02:00.732Z,33.05
2023-02-11T04:03:07.663Z,31.17
2023-02-11T04:04:11.235Z,27.42
2023-02-11T04:05:16.722Z,30.20
2023-02-11T04:06:19.934Z,32.55
2023-02-11T04:07:23.655Z,29.98
2023-02-11T04:08:26.918Z,31.42
2023-02-11T04:09:30.375Z,28.12
2023-02-11T04:10:34.088Z,33.72
2023-02-11T04:11:37.225Z,30.23
2023-02-11T04:12:40.423Z,27.95
2023-02-11T04:13:43.367Z,30.55
2023-02-11T04:14:46.444Z,29.60
2023-02-11T04:15:49.781Z,27.95
2023-02-11T04:16:53.126Z,29.48
2023-02-11T04:17:56.058Z,29.87
2023-02-11T04:18:59.306Z,31.52
2023-02-11T04:20:02.505Z,29.95
2023-02-11T04:21:05.932Z,33.88
2023-02-11T04:22:09.468Z,27.67
2023-02-11T04:23:12.698Z,30.95
2023-02-11T04:24:15.901Z,33.55
2023-02-11T04:25:18.975Z,32.35
2023-02-11T04:26:22.081Z,29.92
2023-02-11T04:27:25.205Z,30.85
2023-02-11T04:28:29.925Z,29.70
2023-02-11T04:29:33.115Z,33.47
2023-02-11T04:30:36.292Z,27.23
2023-02-11T04:31:39.235Z,25.15
2023-02-11T04:32:42.401Z,29.30
2023-02-11T04:33:45.428Z,32.90
2023-02-11T04:34:48.671Z,30.42
2023-02-11T04:35:52.004Z,31.65
2023-02-11T04:36:55.431Z,30.77
2023-02-11T04:37:58.698Z,27.00
2023-02-11T04:39:01.936Z,32.60
2023-02-11T04:40:05.396Z,30.85
2023-02-11T04:41:08.457Z,27.17
2023-02-11T04:42:11.630Z,33.88
2023-02-11T04:43:14.628Z,30.27
2023-02-11T04:44:17.680Z,32.90
2023-02-11T04:45:20.861Z,28.85
2023-02-11T04:46:23.886Z,31.65
2023-02-11T04:47:26.857Z,33.08
2023-02-11T04:48:29.986Z,30.62
2023-02-11T04:49:33.184Z,28.23
2023-02-11T04:50:36.352Z,32.15
2023-02-11T04:51:39.498Z,35.88
2023-02-11T04:52:42.488Z,30.55
2023-02-11T04:53:45.485Z,31.37
2023-02-11T04:54:48.428Z,27.10
2023-02-11T04:55:51.820Z,31.50
2023-02-11T04:56:55.077Z,30.37
2023-02-11T04:57:58.239Z,30.92
2023-02-11T04:59:01.438Z,33.10
2023-02-11T05:00:05.497Z,29.63
2023-02-11T05:01:10.494Z,27.92
2023-02-11T05:02:13.504Z,30.45
2023-02-11T05:03:16.958Z,31.48
2023-02-11T05:04:20.246Z,30.70
2023-02-11T05:05:23.296Z,33.08
2023-02-11T05:06:26.519Z,30.12
2023-02-11T05:07:29.604Z,32.15
2023-02-11T05:08:33.258Z,34.25
2023-02-11T05:09:36.338Z,36.15
2023-02-11T05:10:39.501Z,31.83
2023-02-11T05:11:42.932Z,32.00
2023-02-11T05:12:48.880Z,28.92
2023-02-11T05:13:52.433Z,31.73
2023-02-11T05:14:55.500Z,30.12
2023-02-11T05:15:58.828Z,31.62
2023-02-11T05:17:01.810Z,31.73
2023-02-11T05:18:05.156Z,30.55
2023-02-11T05:19:09.103Z,33.90
2023-02-11T05:20:12.388Z,31.85
2023-02-11T05:21:18.861Z,30.37
2023-02-11T05:22:22.396Z,30.05
2023-02-11T05:23:25.384Z,30.83
2023-02-11T05:24:28.380Z,32.03
2023-02-11T05:25:31.384Z,31.25
2023-02-11T05:26:34.479Z,34.50
2023-02-11T05:27:37.429Z,31.08
2023-02-11T05:28:41.547Z,31.62
2023-02-11T05:29:44.827Z,34.58
2023-02-11T05:30:48.137Z,30.77
2023-02-11T05:31:51.283Z,32.92
2023-02-11T05:32:54.631Z,32.40
2023-02-11T05:33:57.738Z,31.67
2023-02-11T05:35:00.973Z,30.20
2023-02-11T05:36:08.549Z,27.73
2023-02-11T05:37:12.165Z,29.25
2023-02-11T05:38:15.508Z,34.55
2023-02-11T05:39:18.586Z,31.08
2023-02-11T05:40:21.880Z,34.00
2023-02-11T05:41:24.965Z,33.28
2023-02-11T05:42:28.310Z,34.30
2023-02-11T05:43:31.541Z,37.78
2023-02-11T05:44:34.579Z,35.47
2023-02-11T05:45:37.667Z,35.58
2023-02-11T05:46:40.788Z,32.65
2023-02-11T05:47:44.716Z,29.60
2023-02-11T05:48:47.921Z,28.83
2023-02-11T05:49:53.959Z,39.53
2023-02-11T05:50:57.301Z,29.40
2023-02-11T05:52:00.457Z,31.70
2023-02-11T05:53:03.643Z,29.20
2023-02-11T05:54:06.983Z,33.80
2023-02-11T05:55:09.905Z,31.85
2023-02-11T05:56:14.949Z,31.58
2023-02-11T05:57:18.625Z,33.35
2023-02-11T05:58:21.686Z,34.80
2023-02-11T05:59:24.996Z,34.30
2023-02-11T06:00:28.026Z,34.38
2023-02-11T06:01:31.204Z,42.97
2023-02-11T06:02:34.759Z,38.47
2023-02-11T06:03:38.036Z,35.25
2023-02-11T06:04:41.841Z,29.42
2023-02-11T06:05:45.921Z,37.13
2023-02-11T06:06:49.648Z,32.97
2023-02-11T06:07:53.580Z,31.12
2023-02-11T06:08:56.790Z,32.38
2023-02-11T06:09:59.898Z,32.15
2023-02-11T06:11:03.028Z,30.35
2023-02-11T06:12:06.600Z,32.97
2023-02-11T06:13:09.769Z,33.60
2023-02-11T06:14:12.840Z,33.00
2023-02-11T06:15:15.948Z,32.50
2023-02-11T06:16:19.269Z,31.60
2023-02-11T06:17:23.581Z,38.67
2023-02-11T06:18:26.981Z,33.33
2023-02-11T06:19:31.357Z,32.47
2023-02-11T06:20:34.536Z,34.03
2023-02-11T06:21:43.932Z,32.95
2023-02-11T06:22:47.532Z,36.00
2023-02-11T06:23:50.715Z,31.27
2023-02-11T06:25:01.327Z,31.50
2023-02-11T06:26:07.152Z,29.35
2023-02-11T06:27:10.164Z,31.15
2023-02-11T06:28:13.557Z,36.55
2023-02-11T06:29:16.787Z,32.85
2023-02-11T06:30:19.848Z,32.33
2023-02-11T06:31:22.817Z,33.92
2023-02-11T06:32:45.533Z,34.22
2023-02-11T06:33:50.455Z,31.37
2023-02-11T06:34:53.499Z,33.05
2023-02-11T06:35:56.525Z,34.03
2023-02-11T06:36:59.777Z,30.88
2023-02-11T06:38:02.966Z,32.70
2023-02-11T06:39:06.274Z,29.50
2023-02-11T06:40:11.478Z,34.38
2023-02-11T06:41:16.693Z,31.35
2023-02-11T06:42:19.750Z,35.15
2023-02-11T06:43:23.249Z,30.42
2023-02-11T06:44:26.330Z,32.83
2023-02-11T06:45:29.473Z,31.95
2023-02-11T06:46:32.761Z,41.30
2023-02-11T06:47:35.981Z,35.47
2023-02-11T06:48:39.080Z,32.08
2023-02-11T06:49:42.464Z,34.30
2023-02-11T06:50:45.577Z,32.45
2023-02-11T06:51:48.624Z,34.08
2023-02-11T06:52:51.673Z,33.92
2023-02-11T06:53:55.494Z,31.55
2023-02-11T06:54:58.606Z,36.35
2023-02-11T06:56:06.674Z,30.02
2023-02-11T06:57:09.840Z,37.30
2023-02-11T06:58:13.230Z,30.00
2023-02-11T06:59:18.736Z,31.42
2023-02-11T07:00:21.926Z,33.03
2023-02-11T07:01:26.201Z,31.23
2023-02-11T07:02:29.825Z,36.90
2023-02-11T07:03:36.497Z,30.35
2023-02-11T07:04:39.377Z,31.33
2023-02-11T07:05:44.989Z,37.28
2023-02-11T07:06:48.209Z,34.10
2023-02-11T07:07:51.609Z,32.03
2023-02-11T07:08:56.037Z,29.45
2023-02-11T07:09:58.941Z,33.72
2023-02-11T07:11:02.168Z,26.33
2023-02-11T07:12:05.349Z,34.70
2023-02-11T07:13:08.529Z,33.08
2023-02-11T07:14:13.600Z,30.95
2023-02-11T07:15:16.770Z,32.13
2023-02-11T07:16:20.512Z,33.72
2023-02-11T07:17:23.773Z,29.90
2023-02-11T07:18:26.915Z,37.15
2023-02-11T07:19:29.993Z,31.23
2023-02-11T07:20:33.155Z,32.95
2023-02-11T07:21:36.330Z,34.75
2023-02-11T07:22:39.314Z,39.08
2023-02-11T07:23:42.742Z,30.33
2023-02-11T07:24:46.200Z,37.53
2023-02-11T07:25:49.594Z,36.10
2023-02-11T07:26:54.040Z,31.58
2023-02-11T07:27:57.276Z,37.03
2023-02-11T07:29:00.445Z,30.75
2023-02-11T07:30:07.252Z,38.92
2023-02-11T07:31:22.652Z,36.25
2023-02-11T07:32:25.654Z,35.95
2023-02-11T07:33:28.659Z,35.00
2023-02-11T07:34:31.940Z,40.33
2023-02-11T07:35:35.088Z,36.80
2023-02-11T07:36:38.403Z,38.97
2023-02-11T07:37:41.953Z,39.30
2023-02-11T07:38:45.244Z,35.45
2023-02-11T07:39:48.560Z,37.92
2023-02-11T07:40:51.681Z,36.13
2023-02-11T07:41:55.329Z,37.45
2023-02-11T07:42:58.463Z,35.78
2023-02-11T07:44:04.008Z,35.42
2023-02-11T07:45:08.123Z,43.65
2023-02-11T07:46:25.691Z,37.25
2023-02-11T07:47:28.836Z,35.33
2023-02-11T07:48:32.372Z,36.17
2023-02-11T07:49:35.503Z,31.42
2023-02-11T07:50:38.643Z,38.58
2023-02-11T07:51:42.260Z,37.70
2023-02-11T07:52:45.258Z,38.83
2023-02-11T07:53:48.421Z,37.53
2023-02-11T07:54:51.619Z,36.10
2023-02-11T07:55:54.626Z,36.00
2023-02-11T07:56:57.660Z,33.83
2023-02-11T07:58:00.710Z,34.83
2023-02-11T07:59:04.305Z,39.80
2023-02-11T08:00:08.142Z,35.42
2023-02-11T08:01:14.580Z,37.15
2023-02-11T08:02:17.642Z,37.42
2023-02-11T08:03:20.724Z,38.65
2023-02-11T08:04:23.997Z,35.08
2023-02-11T08:05:27.033Z,34.90
2023-02-11T08:06:33.054Z,37.78
2023-02-11T08:07:36.102Z,39.90
2023-02-11T08:08:39.477Z,38.72
2023-02-11T08:09:42.823Z,38.20
2023-02-11T08:10:45.912Z,43.63
2023-02-11T08:11:49.000Z,46.40
2023-02-11T08:12:52.161Z,43.30
2023-02-11T08:13:56.630Z,49.38
2023-02-11T08:14:59.873Z,50.38
2023-02-11T08:16:05.751Z,49.88
2023-02-11T08:17:08.878Z,48.55
2023-02-11T08:18:11.813Z,42.25
2023-02-11T08:19:17.112Z,44.42
2023-02-11T08:20:20.063Z,39.65
2023-02-11T08:21:24.785Z,37.45
2023-02-11T08:22:27.706Z,38.33
2023-02-11T08:23:30.659Z,35.35
2023-02-11T08:24:33.762Z,42.78
2023-02-11T08:25:37.003Z,36.03
2023-02-11T08:26:41.287Z,37.88
2023-02-11T08:27:44.398Z,40.67
2023-02-11T08:28:49.029Z,37.65
2023-02-11T08:29:52.855Z,41.67
2023-02-11T08:30:55.963Z,40.08
2023-02-11T08:31:59.067Z,40.63
2023-02-11T08:33:02.564Z,39.95
2023-02-11T08:34:05.963Z,41.40
2023-02-11T08:35:09.740Z,38.72
2023-02-11T08:36:16.614Z,37.90
2023-02-11T08:37:20.611Z,42.80
2023-02-11T08:38:23.761Z,39.33
2023-02-11T08:39:26.682Z,37.92
2023-02-11T08:40:29.950Z,39.92
2023-02-11T08:41:33.722Z,36.78
2023-02-11T08:42:37.042Z,42.10
2023-02-11T08:43:41.955Z,38.38
2023-02-11T08:44:45.090Z,42.20
2023-02-11T08:45:48.109Z,37.03
2023-02-11T08:46:52.165Z,37.15
2023-02-11T08:47:55.407Z,40.58
2023-02-11T08:48:58.689Z,39.97
2023-02-11T08:50:01.811Z,41.13
2023-02-11T08:51:13.679Z,39.97
2023-02-11T08:52:16.756Z,43.95
2023-02-11T08:53:19.872Z,44.85
2023-02-11T08:54:22.918Z,37.10
2023-02-11T08:55:26.386Z,41.17
2023-02-11T08:56:31.616Z,41.65
2023-02-11T08:57:34.796Z,40.38
2023-02-11T08:58:38.155Z,35.65
2023-02-11T08:59:41.331Z,40.70
2023-02-11T09:00:45.637Z,36.38
2023-02-11T09:01:48.852Z,36.13
2023-02-11T09:02:52.158Z,40.12
2023-02-11T09:03:55.863Z,42.28
2023-02-11T09:04:59.024Z,38.50
2023-02-11T09:06:06.971Z,36.58
2023-02-11T09:07:10.036Z,36.20
2023-02-11T09:08:14.124Z,35.25
2023-02-11T09:09:17.935Z,39.03
2023-02-11T09:10:20.967Z,36.22
2023-02-11T09:11:33.597Z,36.15
2023-02-11T09:12:36.838Z,38.30
2023-02-11T09:13:42.739Z,33.65
2023-02-11T09:14:45.730Z,42.78
2023-02-11T09:15:48.824Z,40.25
2023-02-11T09:16:53.524Z,40.12
2023-02-11T09:17:56.985Z,34.80
2023-02-11T09:19:02.222Z,35.58
2023-02-11T09:20:05.647Z,35.60
2023-02-11T09:21:10.300Z,41.40
2023-02-11T09:22:13.411Z,38.25
2023-02-11T09:23:18.568Z,43.20
2023-02-11T09:24:21.662Z,38.88
2023-02-11T09:25:25.381Z,33.80
2023-02-11T09:26:31.188Z,37.60
2023-02-11T09:27:34.900Z,37.40
2023-02-11T09:28:38.008Z,39.20
2023-02-11T09:29:41.224Z,37.63
2023-02-11T09:30:44.568Z,36.95
2023-02-11T09:31:47.782Z,42.85
2023-02-11T09:32:51.169Z,45.70
2023-02-11T09:33:57.373Z,38.10
2023-02-11T09:35:00.591Z,46.63
2023-02-11T09:36:05.062Z,38.00
2023-02-11T09:37:08.919Z,43.90
2023-02-11T09:38:11.912Z,41.90
2023-02-11T09:39:18.166Z,43.10
2023-02-11T09:40:21.713Z,41.60
2023-02-11T09:41:24.777Z,39.42
2023-02-11T09:42:46.676Z,41.70
2023-02-11T09:43:56.452Z,41.35
2023-02-11T09:45:01.570Z,42.60
2023-02-11T09:46:05.932Z,39.10
2023-02-11T09:47:36.456Z,40.75
2023-02-11T09:48:43.320Z,39.03
2023-02-11T09:49:50.869Z,41.92
2023-02-11T09:50:59.086Z,43.83
2023-02-11T09:52:07.643Z,44.78
2023-02-11T09:53:14.736Z,41.35
2023-02-11T09:54:34.839Z,37.50
2023-02-11T09:55:43.466Z,38.67
2023-02-11T09:56:46.716Z,41.83
2023-02-11T09:57:49.992Z,42.55
2023-02-11T09:58:54.822Z,39.25
2023-02-11T09:59:58.370Z,43.25
2023-02-11T10:01:59.104Z,43.35
2023-02-11T10:03:26.847Z,44.92
2023-02-11T10:04:38.146Z,37.55
2023-02-11T10:06:06.393Z,34.90
2023-02-11T10:07:15.244Z,41.30
2023-02-11T10:08:41.711Z,36.45
2023-02-11T10:10:20.261Z,40.08
2023-02-11T10:11:49.510Z,42.28
2023-02-11T10:13:04.068Z,38.60
2023-02-11T10:14:06.978Z,41.28
2023-02-11T10:15:21.952Z,38.40
2023-02-11T10:16:48.858Z,39.78
2023-02-11T10:18:32.348Z,37.25
2023-02-11T10:20:09.039Z,47.53
2023-02-11T10:21:36.553Z,41.17
2023-02-11T10:22:49.677Z,42.22
2023-02-11T10:23:57.617Z,42.28
2023-02-11T10:25:01.242Z,37.75
2023-02-11T10:26:12.113Z,37.45
2023-02-11T10:27:20.165Z,37.17
2023-02-11T10:28:51.675Z,37.15
2023-02-11T10:30:05.366Z,41.78
2023-02-11T10:31:44.020Z,44.28
2023-02-11T10:33:04.840Z,44.35
2023-02-11T10:34:13.421Z,38.58
2023-02-11T10:35:21.778Z,39.38
2023-02-11T10:36:30.506Z,40.17
2023-02-11T10:37:33.825Z,38.83
2023-02-11T10:38:37.461Z,44.15
2023-02-11T10:39:41.563Z,39.22
2023-02-11T10:40:44.810Z,38.15
2023-02-11T10:42:12.490Z,39.63
2023-02-11T10:43:27.233Z,38.53
2023-02-11T10:44:37.925Z,42.97
2023-02-11T10:45:45.756Z,39.08
2023-02-11T10:46:50.305Z,37.38
2023-02-11T10:47:53.435Z,42.45
2023-02-11T10:48:56.553Z,41.53
2023-02-11T10:50:03.905Z,39.42
2023-02-11T10:51:17.879Z,38.53
2023-02-11T10:52:26.773Z,42.60
2023-02-11T10:53:29.721Z,41.53
2023-02-11T10:54:32.695Z,40.08
2023-02-11T10:55:36.442Z,38.40
2023-02-11T10:56:46.081Z,42.15
2023-02-11T10:57:57.330Z,37.55
2023-02-11T10:59:14.854Z,41.95
2023-02-11T11:00:43.975Z,40.40
2023-02-11T11:01:50.716Z,40.10
2023-02-11T11:02:57.966Z,43.50
2023-02-11T11:04:01.267Z,37.05
2023-02-11T11:05:16.530Z,41.47
2023-02-11T11:06:32.043Z,42.35
2023-02-11T11:07:35.507Z,38.05
2023-02-11T11:08:48.301Z,38.08
2023-02-11T11:09:53.522Z,42.72
2023-02-11T11:11:07.567Z,44.15
2023-02-11T11:12:42.209Z,37.03
2023-02-11T11:13:58.385Z,39.08
2023-02-11T11:15:19.257Z,48.75
2023-02-11T11:16:30.688Z,40.85
2023-02-11T11:17:33.907Z,40.08
2023-02-11T11:18:37.115Z,36.40
2023-02-11T11:19:40.417Z,36.10
2023-02-11T11:21:01.811Z,42.22
2023-02-11T11:22:05.280Z,37.92
2023-02-11T11:23:28.544Z,39.63
2023-02-11T11:24:46.980Z,39.85
2023-02-11T11:26:11.723Z,35.80
2023-02-11T11:27:26.341Z,38.80
2023-02-11T11:28:33.549Z,32.33
2023-02-11T11:29:43.228Z,32.38
2023-02-11T11:30:46.420Z,31.33
2023-02-11T11:31:57.246Z,32.70
2023-02-11T11:33:01.456Z,31.17
2023-02-11T11:34:32.797Z,29.30
2023-02-11T11:35:35.926Z,28.30
2023-02-11T11:36:40.631Z,35.70
2023-02-11T11:37:46.003Z,31.25
2023-02-11T11:39:02.446Z,32.55
2023-02-11T11:40:25.153Z,34.45
2023-02-11T11:41:31.108Z,28.20
2023-02-11T11:42:37.117Z,29.45
2023-02-11T11:43:40.318Z,30.95
2023-02-11T11:44:59.662Z,28.98
2023-02-11T11:46:03.285Z,30.92
2023-02-11T11:47:12.202Z,29.80
2023-02-11T11:48:24.478Z,25.70
2023-02-11T11:49:36.101Z,28.55
2023-02-11T11:51:00.022Z,29.90
2023-02-11T11:52:38.237Z,29.92
2023-02-11T11:54:00.845Z,29.52
2023-02-11T11:55:17.584Z,25.77
2023-02-11T11:56:25.380Z,26.58
2023-02-11T11:57:30.853Z,29.70
2023-02-11T11:58:35.379Z,29.35
2023-02-11T11:59:41.913Z,29.25
2023-02-11T12:01:21.709Z,26.20
2023-02-11T12:02:40.278Z,28.20
2023-02-11T12:03:52.391Z,32.00
2023-02-11T12:04:55.521Z,31.17
2023-02-11T12:06:16.730Z,26.15
2023-02-11T12:07:35.162Z,29.70
2023-02-11T12:08:50.017Z,23.67
2023-02-11T12:10:14.935Z,24.98
2023-02-11T12:11:33.664Z,24.10
2023-02-11T12:12:53.731Z,24.58
2023-02-11T12:14:18.012Z,28.60
2023-02-11T12:15:40.043Z,27.05
2023-02-11T12:18:24.683Z,32.42
2023-02-11T12:19:36.229Z,27.17
2023-02-11T12:20:53.978Z,30.12
2023-02-11T12:22:37.790Z,28.10
2023-02-11T12:23:54.275Z,26.70
2023-02-11T12:25:25.424Z,27.10
2023-02-11T12:26:41.199Z,28.33
2023-02-11T12:27:57.220Z,23.52
2023-02-11T12:29:07.093Z,27.92
2023-02-11T12:30:24.987Z,27.20
2023-02-11T12:32:07.683Z,24.23
2023-02-11T12:33:21.044Z,28.83
2023-02-11T12:34:42.394Z,26.05
2023-02-11T12:35:55.533Z,29.58
2023-02-11T12:37:10.881Z,27.52
2023-02-11T12:38:27.389Z,26.37
2023-02-11T12:39:43.387Z,26.60
2023-02-11T12:41:42.420Z,24.40
2023-02-11T12:43:11.266Z,28.15
2023-02-11T12:44:31.677Z,23.67
2023-02-11T12:46:03.300Z,23.65
2023-02-11T12:47:49.789Z,22.70
2023-02-11T12:49:21.803Z,23.75
2023-02-11T12:50:57.452Z,21.17
2023-02-11T12:52:30.366Z,19.98
2023-02-11T12:53:44.873Z,21.50
2023-02-11T12:55:04.429Z,21.02
2023-02-11T12:56:31.420Z,23.00
2023-02-11T12:57:38.528Z,21.90
2023-02-11T12:58:45.567Z,25.00
2023-02-11T13:00:14.900Z,22.75
2023-02-11T13:01:26.844Z,20.65
2023-02-11T13:03:05.581Z,23.38
2023-02-11T13:04:17.883Z,19.48
2023-02-11T13:05:30.636Z,23.45
2023-02-11T13:06:45.925Z,24.33
2023-02-11T13:07:53.186Z,24.12
2023-02-11T13:09:03.355Z,24.48
2023-02-11T13:10:26.781Z,27.77
2023-02-11T13:11:38.197Z,25.50
2023-02-11T13:13:05.108Z,23.67
2023-02-11T13:14:26.596Z,22.90
2023-02-11T13:15:31.227Z,22.75
2023-02-11T13:16:41.980Z,21.70
2023-02-11T13:18:01.894Z,21.92
2023-02-11T13:19:13.859Z,25.83
2023-02-11T13:20:28.949Z,22.70
2023-02-11T13:21:45.109Z,24.17
2023-02-11T13:23:03.602Z,23.60
2023-02-11T13:24:34.836Z,23.85
2023-02-11T13:25:50.398Z,20.30
2023-02-11T13:27:05.866Z,22.08
2023-02-11T13:28:27.041Z,21.62
2023-02-11T13:30:12.239Z,23.30
2023-02-11T13:31:17.380Z,22.50
2023-02-11T13:32:21.422Z,25.50
2023-02-11T13:33:37.179Z,24.87
2023-02-11T13:34:43.040Z,21.60
2023-02-11T13:35:58.533Z,23.35
2023-02-11T13:37:02.716Z,22.20
2023-02-11T13:38:19.047Z,23.42
2023-02-11T13:39:23.798Z,22.50
2023-02-11T13:40:39.596Z,22.50
2023-02-11T13:41:52.470Z,26.37
2023-02-11T13:43:03.321Z,24.77
2023-02-11T13:44:27.963Z,21.52
2023-02-11T13:45:43.659Z,25.10
2023-02-11T13:46:50.256Z,24.35
2023-02-11T13:48:02.598Z,21.27
2023-02-11T13:49:06.211Z,26.55
2023-02-11T13:50:25.389Z,23.48
2023-02-11T13:51:43.157Z,24.95
2023-02-11T13:53:02.072Z,23.77
2023-02-11T13:54:08.016Z,26.45
2023-02-11T13:55:14.762Z,22.37
2023-02-11T13:56:35.970Z,25.15
2023-02-11T13:57:41.135Z,20.50
2023-02-11T13:58:49.482Z,24.75
2023-02-11T13:59:59.519Z,21.55
2023-02-11T14:01:02.805Z,23.87
2023-02-11T14:02:42.583Z,23.42
2023-02-11T14:04:36.982Z,22.30
2023-02-11T14:06:27.950Z,25.45
2023-02-11T14:07:52.668Z,24.85
2023-02-11T14:09:09.979Z,21.58
2023-02-11T14:10:45.891Z,18.60
2023-02-11T14:11:52.318Z,23.12
2023-02-11T14:13:26.112Z,22.92
2023-02-11T14:14:34.157Z,23.02
2023-02-11T14:15:41.560Z,24.30
2023-02-11T14:17:04.786Z,22.40
2023-02-11T14:18:38.404Z,23.38
2023-02-11T14:19:47.102Z,22.67
2023-02-11T14:20:51.936Z,24.52
2023-02-11T14:22:12.434Z,24.63
2023-02-11T14:23:24.980Z,27.85
2023-02-11T14:24:28.222Z,26.55
2023-02-11T14:25:33.067Z,26.17
2023-02-11T14:26:58.891Z,23.85
2023-02-11T14:28:16.110Z,26.92
2023-02-11T14:29:37.678Z,22.48
2023-02-11T14:30:52.371Z,26.20
2023-02-11T14:32:04.053Z,24.67
2023-02-11T14:33:35.335Z,25.30
2023-02-11T14:34:42.235Z,23.60
2023-02-11T14:36:03.354Z,24.70
2023-02-11T14:37:27.285Z,32.22
2023-02-11T14:38:56.495Z,29.58
2023-02-11T14:40:27.160Z,30.83
2023-02-11T14:41:37.426Z,27.25
2023-02-11T14:42:41.311Z,28.23
2023-02-11T14:43:48.445Z,25.67
2023-02-11T14:44:56.514Z,27.92
2023-02-11T14:46:02.070Z,26.90
2023-02-11T14:47:06.506Z,26.75
2023-02-11T14:48:17.616Z,28.75
2023-02-11T14:49:29.138Z,28.00
2023-02-11T14:50:49.027Z,25.42
2023-02-11T14:52:00.192Z,26.58